Rae — WDF3909 — position and weather

sailwx.info

Track history (hours):
 
Tides and Currents Weather Stations Pressure Air Temp Water Temp Dewpoint Dewpoint Depression Visibility Wind Speed Wind Dir Waves Ship Positions

Rae

Owner: Fox Marine Corporation, Easton, PA. More information available from US FCC via Universal Licensing System and Coast Guard Vessel Documentation Center.

Last reported at 2015-May-01 14:12 UTC. Time now 2015-May-05 06:13 UTC.
Position N 41°02' W 073°32'.

; draft 2 m.

Type: Fishing. MMSI: 367445510.

Date/timePositionNaut miles runAvg speedWind from/ knotsBaromVisibWave heightAir tempDewpointWater temp
2015-May-01 14:12N 41°02' W 073°32'2 3.3
2015-May-01 13:33N 41°00' W 073°33'3 3.1
2015-May-01 12:33N 40°58' W 073°36'4 4.2
2015-May-01 11:33N 40°56' W 073°40'4 4.1
2015-May-01 10:32N 40°53' W 073°44'6 4.5
2015-May-01 09:18N 40°48' W 073°48'5 5.5
2015-May-01 08:28N 40°48' W 073°54'5 5.1
2015-May-01 07:33N 40°44' W 073°58'5 4.6
2015-May-01 06:33N 40°41' W 074°02'  
2015-Apr-24 21:31N 40°42' W 074°01'8 8.7
2015-Apr-24 20:33N 40°48' W 073°53'5 5.1
2015-Apr-24 19:32N 40°50' W 073°47'15 4.8
2015-Apr-24 16:25N 40°60' W 073°32'4 4.5
2015-Apr-24 15:33N 41°01' W 073°27'4 4.3
2015-Apr-24 14:33N 41°03' W 073°22'4 4.2
2015-Apr-24 13:32N 41°05' W 073°17'4 3.7
2015-Apr-24 12:33N 41°07' W 073°13'4 3.4
2015-Apr-24 11:28N 41°08' W 073°08'4 3.6
2015-Apr-24 10:14N 41°10' W 073°03'3 4.1
2015-Apr-24 09:25N 41°12' W 072°60'3 4.0
2015-Apr-24 08:33N 41°14' W 072°56'4 0.1
2015-Apr-22 19:33N 41°18' W 072°54'2 1.6
2015-Apr-22 18:33N 41°16' W 072°55'3 2.6
2015-Apr-22 17:33N 41°14' W 072°55'2 2.0
2015-Apr-22 16:33N 41°12' W 072°57'2 1.8
2015-Apr-22 15:33N 41°11' W 072°59'2 2.3
2015-Apr-22 14:33N 41°10' W 073°01'3 2.8
2015-Apr-22 13:33N 41°08' W 073°05'3 2.8
2015-Apr-22 12:33N 41°07' W 073°08'4 3.9
2015-Apr-22 11:33N 41°06' W 073°13'4 4.1
2015-Apr-22 10:33N 41°04' W 073°18'4 3.6
2015-Apr-22 09:33N 41°03' W 073°22'4 3.6
2015-Apr-22 08:33N 41°01' W 073°27'  
Track history (hours):
 
Tides and Currents Weather Stations Pressure Air Temp Water Temp Dewpoint Dewpoint Depression Visibility Wind Speed Wind Dir Waves Ship Positions

Rae

Owner: Fox Marine Corporation, Easton, PA. More information available from US FCC via Universal Licensing System and Coast Guard Vessel Documentation Center.

Last reported at 2015-May-01 14:12 UTC. Time now 2015-May-05 06:13 UTC.
Position N 41°02' W 073°32'.

; draft 2 m.

Type: Fishing. MMSI: 367445510.

Date/timePositionNaut miles runAvg speedWind from/ knotsBaromVisibWave heightAir tempDewpointWater temp
2015-May-01 14:12N 41°02' W 073°32'2 3.3
2015-May-01 13:33N 41°00' W 073°33'3 3.1
2015-May-01 12:33N 40°58' W 073°36'4 4.2
2015-May-01 11:33N 40°56' W 073°40'4 4.1
2015-May-01 10:32N 40°53' W 073°44'6 4.5
2015-May-01 09:18N 40°48' W 073°48'5 5.5
2015-May-01 08:28N 40°48' W 073°54'5 5.1
2015-May-01 07:33N 40°44' W 073°58'5 4.6
2015-May-01 06:33N 40°41' W 074°02'  
2015-Apr-24 21:31N 40°42' W 074°01'8 8.7
2015-Apr-24 20:33N 40°48' W 073°53'5 5.1
2015-Apr-24 19:32N 40°50' W 073°47'15 4.8
2015-Apr-24 16:25N 40°60' W 073°32'4 4.5
2015-Apr-24 15:33N 41°01' W 073°27'4 4.3
2015-Apr-24 14:33N 41°03' W 073°22'4 4.2
2015-Apr-24 13:32N 41°05' W 073°17'4 3.7
2015-Apr-24 12:33N 41°07' W 073°13'4 3.4
2015-Apr-24 11:28N 41°08' W 073°08'4 3.6
2015-Apr-24 10:14N 41°10' W 073°03'3 4.1
2015-Apr-24 09:25N 41°12' W 072°60'3 4.0
2015-Apr-24 08:33N 41°14' W 072°56'4 0.1
2015-Apr-22 19:33N 41°18' W 072°54'2 1.6
2015-Apr-22 18:33N 41°16' W 072°55'3 2.6
2015-Apr-22 17:33N 41°14' W 072°55'2 2.0
2015-Apr-22 16:33N 41°12' W 072°57'2 1.8
2015-Apr-22 15:33N 41°11' W 072°59'2 2.3
2015-Apr-22 14:33N 41°10' W 073°01'3 2.8
2015-Apr-22 13:33N 41°08' W 073°05'3 2.8
2015-Apr-22 12:33N 41°07' W 073°08'4 3.9
2015-Apr-22 11:33N 41°06' W 073°13'4 4.1
2015-Apr-22 10:33N 41°04' W 073°18'4 3.6
2015-Apr-22 09:33N 41°03' W 073°22'4 3.6
2015-Apr-22 08:33N 41°01' W 073°27'  

Dump ship's entire track history